sensor_id;sensor_type;location;lat;lon;timestamp;pressure;altitude;pressure_sealevel;temperature;humidity
24440;BME280;12618;54.386;18.394;2023-02-13T00:00:40;101241.20;;;4.23;100.00
24440;BME280;12618;54.386;18.394;2023-02-13T00:03:12;101238.23;;;4.23;100.00
24440;BME280;12618;54.386;18.394;2023-02-13T00:05:45;101235.78;;;4.21;100.00
24440;BME280;12618;54.386;18.394;2023-02-13T00:08:17;101236.31;;;4.19;100.00
24440;BME280;12618;54.386;18.394;2023-02-13T00:10:49;101235.09;;;4.16;100.00
24440;BME280;12618;54.386;18.394;2023-02-13T00:13:21;101232.65;;;4.14;100.00
24440;BME280;12618;54.386;18.394;2023-02-13T00:16:01;101234.55;;;4.13;100.00
24440;BME280;12618;54.386;18.394;2023-02-13T00:18:35;101234.38;;;4.11;100.00
24440;BME280;12618;54.386;18.394;2023-02-13T00:21:09;101236.80;;;4.09;100.00
24440;BME280;12618;54.386;18.394;2023-02-13T00:23:41;101246.75;;;4.08;100.00
24440;BME280;12618;54.386;18.394;2023-02-13T00:26:14;101241.17;;;4.07;100.00
24440;BME280;12618;54.386;18.394;2023-02-13T00:28:46;101238.72;;;4.06;100.00
24440;BME280;12618;54.386;18.394;2023-02-13T00:31:20;101238.04;;;4.06;100.00
24440;BME280;12618;54.386;18.394;2023-02-13T00:33:52;101235.07;;;4.07;100.00
24440;BME280;12618;54.386;18.394;2023-02-13T00:36:23;101236.48;;;4.07;100.00
24440;BME280;12618;54.386;18.394;2023-02-13T00:38:55;101239.77;;;4.08;100.00
24440;BME280;12618;54.386;18.394;2023-02-13T00:41:27;101245.16;;;4.10;100.00
24440;BME280;12618;54.386;18.394;2023-02-13T00:43:58;101238.71;;;4.10;100.00
24440;BME280;12618;54.386;18.394;2023-02-13T00:46:30;101235.59;;;4.08;100.00
24440;BME280;12618;54.386;18.394;2023-02-13T00:49:02;101237.34;;;4.07;100.00
24440;BME280;12618;54.386;18.394;2023-02-13T00:51:33;101239.08;;;4.06;100.00
24440;BME280;12618;54.386;18.394;2023-02-13T00:54:05;101239.60;;;4.06;100.00
24440;BME280;12618;54.386;18.394;2023-02-13T00:56:37;101242.73;;;4.05;100.00
24440;BME280;12618;54.386;18.394;2023-02-13T00:59:09;101239.74;;;4.02;100.00
24440;BME280;12618;54.386;18.394;2023-02-13T01:01:40;101244.80;;;4.03;100.00
24440;BME280;12618;54.386;18.394;2023-02-13T01:04:12;101240.45;;;4.05;100.00
24440;BME280;12618;54.386;18.394;2023-02-13T01:06:43;101237.85;;;4.07;100.00
24440;BME280;12618;54.386;18.394;2023-02-13T01:09:15;101234.19;;;4.05;100.00
24440;BME280;12618;54.386;18.394;2023-02-13T01:11:47;101236.10;;;4.03;100.00
24440;BME280;12618;54.386;18.394;2023-02-13T01:14:18;101234.00;;;4.03;100.00
24440;BME280;12618;54.386;18.394;2023-02-13T01:16:51;101238.52;;;4.00;100.00
24440;BME280;12618;54.386;18.394;2023-02-13T01:19:22;101241.64;;;3.99;100.00
24440;BME280;12618;54.386;18.394;2023-02-13T01:21:54;101240.27;;;3.96;100.00
24440;BME280;12618;54.386;18.394;2023-02-13T01:24:25;101234.85;;;3.94;100.00
24440;BME280;12618;54.386;18.394;2023-02-13T01:27:00;101232.75;;;3.94;100.00
24440;BME280;12618;54.386;18.394;2023-02-13T01:29:32;101227.02;;;3.94;100.00
24440;BME280;12618;54.386;18.394;2023-02-13T01:32:04;101225.63;;;3.95;100.00
24440;BME280;12618;54.386;18.394;2023-02-13T01:34:36;101224.23;;;3.94;100.00
24440;BME280;12618;54.386;18.394;2023-02-13T01:37:07;101224.58;;;3.93;100.00
24440;BME280;12618;54.386;18.394;2023-02-13T01:39:39;101225.60;;;3.91;100.00
24440;BME280;12618;54.386;18.394;2023-02-13T01:42:23;101222.47;;;3.91;100.00
24440;BME280;12618;54.386;18.394;2023-02-13T01:44:59;101215.31;;;3.90;100.00
24440;BME280;12618;54.386;18.394;2023-02-13T01:47:41;101210.61;;;3.88;100.00
24440;BME280;12618;54.386;18.394;2023-02-13T01:50:20;101209.05;;;3.89;100.00
24440;BME280;12618;54.386;18.394;2023-02-13T01:53:11;101209.92;;;3.90;100.00
24440;BME280;12618;54.386;18.394;2023-02-13T01:56:05;101208.18;;;3.90;100.00
24440;BME280;12618;54.386;18.394;2023-02-13T01:58:40;101195.30;;;3.90;100.00
24440;BME280;12618;54.386;18.394;2023-02-13T02:01:13;101191.63;;;3.88;100.00
24440;BME280;12618;54.386;18.394;2023-02-13T02:03:54;101185.89;;;3.88;100.00
24440;BME280;12618;54.386;18.394;2023-02-13T02:06:34;101185.70;;;3.88;100.00
24440;BME280;12618;54.386;18.394;2023-02-13T02:09:20;101184.15;;;3.90;100.00
24440;BME280;12618;54.386;18.394;2023-02-13T02:11:57;101183.80;;;3.90;100.00
24440;BME280;12618;54.386;18.394;2023-02-13T02:14:30;101185.20;;;3.92;100.00
24440;BME280;12618;54.386;18.394;2023-02-13T02:17:02;101177.38;;;3.93;100.00
24440;BME280;12618;54.386;18.394;2023-02-13T02:19:41;101184.16;;;3.92;100.00
24440;BME280;12618;54.386;18.394;2023-02-13T02:36:33;101191.48;;;3.98;100.00
24440;BME280;12618;54.386;18.394;2023-02-13T02:42:03;101191.51;;;4.03;100.00
24440;BME280;12618;54.386;18.394;2023-02-13T02:53:16;101174.79;;;4.11;100.00
24440;BME280;12618;54.386;18.394;2023-02-13T02:56:17;101178.63;;;4.12;100.00
24440;BME280;12618;54.386;18.394;2023-02-13T02:58:53;101171.67;;;4.13;100.00
24440;BME280;12618;54.386;18.394;2023-02-13T03:01:46;101170.29;;;4.15;100.00
24440;BME280;12618;54.386;18.394;2023-02-13T03:04:42;101170.48;;;4.18;100.00
24440;BME280;12618;54.386;18.394;2023-02-13T03:07:33;101171.67;;;4.21;100.00
24440;BME280;12618;54.386;18.394;2023-02-13T03:10:11;101167.32;;;4.21;100.00
24440;BME280;12618;54.386;18.394;2023-02-13T03:13:15;101166.45;;;4.21;100.00
24440;BME280;12618;54.386;18.394;2023-02-13T03:15:53;101166.80;;;4.20;100.00
24440;BME280;12618;54.386;18.394;2023-02-13T03:18:51;101167.51;;;4.19;100.00
24440;BME280;12618;54.386;18.394;2023-02-13T03:21:55;101172.04;;;4.19;100.00
24440;BME280;12618;54.386;18.394;2023-02-13T03:25:17;101170.11;;;4.20;100.00
24440;BME280;12618;54.386;18.394;2023-02-13T03:33:56;101166.64;;;4.24;100.00
24440;BME280;12618;54.386;18.394;2023-02-13T03:36:36;101169.77;;;4.23;100.00
24440;BME280;12618;54.386;18.394;2023-02-13T03:42:31;101170.11;;;4.22;100.00
24440;BME280;12618;54.386;18.394;2023-02-13T03:47:57;101168.73;;;4.24;100.00
24440;BME280;12618;54.386;18.394;2023-02-13T03:50:31;101165.61;;;4.28;100.00
24440;BME280;12618;54.386;18.394;2023-02-13T03:53:12;101161.94;;;4.31;100.00
24440;BME280;12618;54.386;18.394;2023-02-13T03:55:46;101161.05;;;4.33;100.00
24440;BME280;12618;54.386;18.394;2023-02-13T03:58:41;101167.86;;;4.36;100.00
24440;BME280;12618;54.386;18.394;2023-02-13T04:01:36;101161.27;;;4.40;100.00
24440;BME280;12618;54.386;18.394;2023-02-13T04:04:30;101153.40;;;4.44;100.00
24440;BME280;12618;54.386;18.394;2023-02-13T04:07:08;101158.46;;;4.48;100.00
24440;BME280;12618;54.386;18.394;2023-02-13T04:09:41;101162.65;;;4.50;100.00
24440;BME280;12618;54.386;18.394;2023-02-13T04:12:18;101165.78;;;4.53;100.00
24440;BME280;12618;54.386;18.394;2023-02-13T04:14:57;101160.02;;;4.55;100.00
24440;BME280;12618;54.386;18.394;2023-02-13T04:17:35;101159.33;;;4.58;100.00
24440;BME280;12618;54.386;18.394;2023-02-13T04:20:10;101164.05;;;4.62;100.00
24440;BME280;12618;54.386;18.394;2023-02-13T04:22:46;101167.70;;;4.64;100.00
24440;BME280;12618;54.386;18.394;2023-02-13T04:25:18;101165.41;;;4.66;100.00
24440;BME280;12618;54.386;18.394;2023-02-13T04:27:50;101162.98;;;4.68;100.00
24440;BME280;12618;54.386;18.394;2023-02-13T04:30:22;101168.91;;;4.70;100.00
24440;BME280;12618;54.386;18.394;2023-02-13T04:32:54;101165.79;;;4.73;100.00
24440;BME280;12618;54.386;18.394;2023-02-13T04:35:26;101164.20;;;4.74;100.00
24440;BME280;12618;54.386;18.394;2023-02-13T04:37:57;101169.77;;;4.74;100.00
24440;BME280;12618;54.386;18.394;2023-02-13T04:40:29;101167.33;;;4.77;100.00
24440;BME280;12618;54.386;18.394;2023-02-13T04:43:02;101168.90;;;4.78;100.00
24440;BME280;12618;54.386;18.394;2023-02-13T04:45:33;101168.20;;;4.81;100.00
24440;BME280;12618;54.386;18.394;2023-02-13T04:48:05;101168.73;;;4.82;100.00
24440;BME280;12618;54.386;18.394;2023-02-13T04:50:37;101172.92;;;4.84;100.00
24440;BME280;12618;54.386;18.394;2023-02-13T04:53:08;101170.99;;;4.86;100.00
24440;BME280;12618;54.386;18.394;2023-02-13T04:55:40;101173.60;;;4.85;100.00
24440;BME280;12618;54.386;18.394;2023-02-13T04:58:12;101175.69;;;4.86;100.00
24440;BME280;12618;54.386;18.394;2023-02-13T05:00:44;101181.27;;;4.87;100.00
24440;BME280;12618;54.386;18.394;2023-02-13T05:03:15;101178.65;;;4.88;100.00
24440;BME280;12618;54.386;18.394;2023-02-13T05:05:47;101179.52;;;4.88;100.00
24440;BME280;12618;54.386;18.394;2023-02-13T05:08:20;101175.52;;;4.88;100.00
24440;BME280;12618;54.386;18.394;2023-02-13T05:10:52;101177.77;;;4.89;100.00
24440;BME280;12618;54.386;18.394;2023-02-13T05:13:23;101174.98;;;4.89;100.00
24440;BME280;12618;54.386;18.394;2023-02-13T05:15:55;101180.73;;;4.89;100.00
24440;BME280;12618;54.386;18.394;2023-02-13T05:18:27;101179.52;;;4.89;100.00
24440;BME280;12618;54.386;18.394;2023-02-13T05:20:59;101185.63;;;4.90;100.00
24440;BME280;12618;54.386;18.394;2023-02-13T05:23:49;101191.39;;;4.92;100.00
24440;BME280;12618;54.386;18.394;2023-02-13T05:26:20;101199.41;;;4.92;100.00
24440;BME280;12618;54.386;18.394;2023-02-13T05:28:52;101193.14;;;4.92;100.00
24440;BME280;12618;54.386;18.394;2023-02-13T05:31:42;101187.55;;;4.92;100.00
24440;BME280;12618;54.386;18.394;2023-02-13T05:34:14;101189.13;;;4.91;100.00
24440;BME280;12618;54.386;18.394;2023-02-13T05:36:46;101198.02;;;4.91;100.00
24440;BME280;12618;54.386;18.394;2023-02-13T05:39:18;101202.73;;;4.91;100.00
24440;BME280;12618;54.386;18.394;2023-02-13T05:41:50;101202.20;;;4.91;100.00
24440;BME280;12618;54.386;18.394;2023-02-13T05:44:21;101198.36;;;4.92;100.00
24440;BME280;12618;54.386;18.394;2023-02-13T05:46:53;101200.64;;;4.92;100.00
24440;BME280;12618;54.386;18.394;2023-02-13T05:49:25;101199.77;;;4.93;100.00
24440;BME280;12618;54.386;18.394;2023-02-13T05:51:56;101204.48;;;4.93;100.00
24440;BME280;12618;54.386;18.394;2023-02-13T05:54:28;101207.61;;;4.93;100.00
24440;BME280;12618;54.386;18.394;2023-02-13T05:56:59;101206.21;;;4.92;100.00
24440;BME280;12618;54.386;18.394;2023-02-13T05:59:31;101208.31;;;4.94;100.00
24440;BME280;12618;54.386;18.394;2023-02-13T06:02:03;101211.63;;;4.94;100.00
24440;BME280;12618;54.386;18.394;2023-02-13T06:04:34;101213.20;;;4.94;100.00
24440;BME280;12618;54.386;18.394;2023-02-13T06:07:06;101216.68;;;4.93;100.00
24440;BME280;12618;54.386;18.394;2023-02-13T06:09:38;101217.20;;;4.93;100.00
24440;BME280;12618;54.386;18.394;2023-02-13T06:12:09;101211.45;;;4.94;100.00
24440;BME280;12618;54.386;18.394;2023-02-13T06:14:41;101206.05;;;4.93;100.00
24440;BME280;12618;54.386;18.394;2023-02-13T06:17:13;101202.20;;;4.92;100.00
24440;BME280;12618;54.386;18.394;2023-02-13T06:19:45;101208.14;;;4.93;100.00
24440;BME280;12618;54.386;18.394;2023-02-13T06:22:17;101209.17;;;4.93;100.00
24440;BME280;12618;54.386;18.394;2023-02-13T06:24:48;101208.83;;;4.93;100.00
24440;BME280;12618;54.386;18.394;2023-02-13T06:27:20;101214.06;;;4.93;100.00
24440;BME280;12618;54.386;18.394;2023-02-13T06:29:52;101218.95;;;4.94;100.00
24440;BME280;12618;54.386;18.394;2023-02-13T06:32:23;101225.41;;;4.94;100.00
24440;BME280;12618;54.386;18.394;2023-02-13T06:34:55;101226.62;;;4.94;100.00
24440;BME280;12618;54.386;18.394;2023-02-13T06:37:26;101225.23;;;4.95;100.00
24440;BME280;12618;54.386;18.394;2023-02-13T06:40:00;101221.73;;;4.95;100.00
24440;BME280;12618;54.386;18.394;2023-02-13T06:42:32;101226.27;;;4.97;100.00
24440;BME280;12618;54.386;18.394;2023-02-13T06:45:04;101225.55;;;4.98;100.00
24440;BME280;12618;54.386;18.394;2023-02-13T06:47:43;101219.63;;;5.01;100.00
24440;BME280;12618;54.386;18.394;2023-02-13T06:50:18;101216.84;;;5.03;100.00
24440;BME280;12618;54.386;18.394;2023-02-13T06:52:51;101217.36;;;5.07;100.00
24440;BME280;12618;54.386;18.394;2023-02-13T06:55:22;101221.18;;;5.11;100.00
24440;BME280;12618;54.386;18.394;2023-02-13T06:57:54;101222.05;;;5.14;100.00
24440;BME280;12618;54.386;18.394;2023-02-13T07:00:26;101216.65;;;5.17;100.00
24440;BME280;12618;54.386;18.394;2023-02-13T07:03:02;101212.98;;;5.18;100.00
24440;BME280;12618;54.386;18.394;2023-02-13T07:05:34;101208.27;;;5.20;100.00
24440;BME280;12618;54.386;18.394;2023-02-13T07:08:07;101215.23;;;5.21;100.00
24440;BME280;12618;54.386;18.394;2023-02-13T07:10:40;101213.84;;;5.23;100.00
24440;BME280;12618;54.386;18.394;2023-02-13T07:13:12;101213.14;;;5.24;100.00
24440;BME280;12618;54.386;18.394;2023-02-13T07:15:44;101214.53;;;5.25;100.00
24440;BME280;12618;54.386;18.394;2023-02-13T07:18:16;101212.63;;;5.28;100.00
24440;BME280;12618;54.386;18.394;2023-02-13T07:20:47;101209.29;;;5.30;100.00
24440;BME280;12618;54.386;18.394;2023-02-13T07:23:19;101209.79;;;5.33;100.00
24440;BME280;12618;54.386;18.394;2023-02-13T07:25:51;101203.52;;;5.35;100.00
24440;BME280;12618;54.386;18.394;2023-02-13T07:28:22;101197.40;;;5.37;100.00
24440;BME280;12618;54.386;18.394;2023-02-13T07:30:54;101189.17;;;5.42;100.00
24440;BME280;12618;54.386;18.394;2023-02-13T07:33:27;101194.40;;;5.47;100.00
24440;BME280;12618;54.386;18.394;2023-02-13T07:35:59;101185.48;;;5.51;100.00
24440;BME280;12618;54.386;18.394;2023-02-13T07:38:33;101187.21;;;5.55;100.00
24440;BME280;12618;54.386;18.394;2023-02-13T07:41:05;101189.29;;;5.62;100.00
24440;BME280;12618;54.386;18.394;2023-02-13T07:43:37;101195.87;;;5.72;100.00
24440;BME280;12618;54.386;18.394;2023-02-13T07:46:09;101196.35;;;5.84;100.00
24440;BME280;12618;54.386;18.394;2023-02-13T07:48:40;101200.88;;;5.90;100.00
24440;BME280;12618;54.386;18.394;2023-02-13T07:51:12;101201.05;;;5.94;100.00
24440;BME280;12618;54.386;18.394;2023-02-13T07:53:44;101205.73;;;6.00;100.00
24440;BME280;12618;54.386;18.394;2023-02-13T07:56:15;101203.98;;;6.01;100.00
24440;BME280;12618;54.386;18.394;2023-02-13T07:58:47;101205.73;;;5.97;100.00
24440;BME280;12618;54.386;18.394;2023-02-13T08:01:18;101205.24;;;5.94;100.00
24440;BME280;12618;54.386;18.394;2023-02-13T08:03:50;101202.81;;;5.91;100.00
24440;BME280;12618;54.386;18.394;2023-02-13T08:06:23;101198.61;;;5.90;100.00
24440;BME280;12618;54.386;18.394;2023-02-13T08:08:55;101189.69;;;5.89;100.00
24440;BME280;12618;54.386;18.394;2023-02-13T08:11:45;101199.65;;;5.93;100.00
24440;BME280;12618;54.386;18.394;2023-02-13T08:14:26;101196.34;;;5.95;100.00
24440;BME280;12618;54.386;18.394;2023-02-13T08:16:58;101195.60;;;5.97;100.00
24440;BME280;12618;54.386;18.394;2023-02-13T08:19:31;101197.16;;;5.99;100.00
24440;BME280;12618;54.386;18.394;2023-02-13T08:22:03;101198.20;;;6.04;100.00
24440;BME280;12618;54.386;18.394;2023-02-13T08:24:35;101193.96;;;6.09;100.00
24440;BME280;12618;54.386;18.394;2023-02-13T08:27:11;101197.79;;;6.12;100.00
24440;BME280;12618;54.386;18.394;2023-02-13T08:29:42;101191.48;;;6.16;100.00
24440;BME280;12618;54.386;18.394;2023-02-13T08:32:14;101187.83;;;6.16;100.00
24440;BME280;12618;54.386;18.394;2023-02-13T08:34:46;101183.44;;;6.18;100.00
24440;BME280;12618;54.386;18.394;2023-02-13T08:37:17;101186.02;;;6.19;100.00
24440;BME280;12618;54.386;18.394;2023-02-13T08:39:49;101182.55;;;6.18;100.00
24440;BME280;12618;54.386;18.394;2023-02-13T08:42:21;101177.67;;;6.17;100.00
24440;BME280;12618;54.386;18.394;2023-02-13T08:44:52;101176.45;;;6.17;100.00
24440;BME280;12618;54.386;18.394;2023-02-13T08:47:24;101175.58;;;6.17;100.00
24440;BME280;12618;54.386;18.394;2023-02-13T08:49:56;101181.88;;;6.16;100.00
24440;BME280;12618;54.386;18.394;2023-02-13T08:52:27;101181.48;;;6.20;100.00
24440;BME280;12618;54.386;18.394;2023-02-13T08:54:59;101175.20;;;6.19;100.00
24440;BME280;12618;54.386;18.394;2023-02-13T08:57:34;101181.48;;;6.20;100.00
24440;BME280;12618;54.386;18.394;2023-02-13T09:00:06;101174.13;;;6.20;100.00
24440;BME280;12618;54.386;18.394;2023-02-13T09:02:38;101171.34;;;6.21;100.00
24440;BME280;12618;54.386;18.394;2023-02-13T09:05:09;101173.09;;;6.21;100.00
24440;BME280;12618;54.386;18.394;2023-02-13T09:07:41;101172.40;;;6.20;100.00
24440;BME280;12618;54.386;18.394;2023-02-13T09:10:13;101177.49;;;6.18;100.00
24440;BME280;12618;54.386;18.394;2023-02-13T09:12:51;101183.45;;;6.18;100.00
24440;BME280;12618;54.386;18.394;2023-02-13T09:15:23;101183.27;;;6.16;100.00
24440;BME280;12618;54.386;18.394;2023-02-13T09:17:54;101187.83;;;6.16;100.00
24440;BME280;12618;54.386;18.394;2023-02-13T09:20:28;101186.41;;;6.17;100.00
24440;BME280;12618;54.386;18.394;2023-02-13T09:23:00;101192.66;;;6.23;100.00
24440;BME280;12618;54.386;18.394;2023-02-13T09:25:31;101201.91;;;6.26;100.00
24440;BME280;12618;54.386;18.394;2023-02-13T09:28:03;101205.06;;;6.23;100.00
24440;BME280;12618;54.386;18.394;2023-02-13T09:30:35;101210.13;;;6.22;100.00
24440;BME280;12618;54.386;18.394;2023-02-13T09:33:10;101205.95;;;6.21;100.00
24440;BME280;12618;54.386;18.394;2023-02-13T09:35:44;101202.45;;;6.23;100.00
24440;BME280;12618;54.386;18.394;2023-02-13T09:38:16;101203.11;;;6.28;100.00
24440;BME280;12618;54.386;18.394;2023-02-13T09:41:37;101199.89;;;6.40;100.00
24440;BME280;12618;54.386;18.394;2023-02-13T09:47:36;101199.36;;;6.64;100.00
24440;BME280;12618;54.386;18.394;2023-02-13T09:50:24;101201.41;;;6.69;100.00
24440;BME280;12618;54.386;18.394;2023-02-13T09:52:59;101199.46;;;6.72;100.00
24440;BME280;12618;54.386;18.394;2023-02-13T09:55:42;101195.64;;;6.70;100.00
24440;BME280;12618;54.386;18.394;2023-02-13T10:00:59;101192.23;;;6.76;100.00
24440;BME280;12618;54.386;18.394;2023-02-13T10:06:36;101198.81;;;7.04;100.00
24440;BME280;12618;54.386;18.394;2023-02-13T10:12:11;101189.06;;;7.33;100.00
24440;BME280;12618;54.386;18.394;2023-02-13T10:17:56;101190.36;;;7.42;100.00
24440;BME280;12618;54.386;18.394;2023-02-13T10:20:48;101196.27;;;7.48;100.00
24440;BME280;12618;54.386;18.394;2023-02-13T10:26:06;101187.00;;;7.61;100.00
24440;BME280;12618;54.386;18.394;2023-02-13T10:28:53;101183.11;;;7.63;100.00
24440;BME280;12618;54.386;18.394;2023-02-13T10:31:47;101192.55;;;7.64;100.00
24440;BME280;12618;54.386;18.394;2023-02-13T10:34:24;101186.20;;;7.67;100.00
24440;BME280;12618;54.386;18.394;2023-02-13T10:36:58;101175.33;;;7.68;100.00
24440;BME280;12618;54.386;18.394;2023-02-13T10:39:30;101175.30;;;7.70;100.00
24440;BME280;12618;54.386;18.394;2023-02-13T10:42:22;101166.46;;;7.76;100.00
24440;BME280;12618;54.386;18.394;2023-02-13T10:48:07;101160.30;;;7.91;100.00
24440;BME280;12618;54.386;18.394;2023-02-13T10:54:09;101164.98;;;7.95;100.00
24440;BME280;12618;54.386;18.394;2023-02-13T10:59:39;101185.02;;;7.78;100.00
24440;BME280;12618;54.386;18.394;2023-02-13T11:02:25;101175.48;;;7.71;100.00
24440;BME280;12618;54.386;18.394;2023-02-13T11:05:00;101176.55;;;7.69;100.00
24440;BME280;12618;54.386;18.394;2023-02-13T11:07:33;101185.45;;;7.73;100.00
24440;BME280;12618;54.386;18.394;2023-02-13T11:12:47;101175.99;;;7.84;100.00
24440;BME280;12618;54.386;18.394;2023-02-13T11:15:29;101166.23;;;7.94;100.00
24440;BME280;12618;54.386;18.394;2023-02-13T11:18:21;101155.36;;;8.06;100.00
24440;BME280;12618;54.386;18.394;2023-02-13T11:21:13;101147.55;;;8.13;100.00
24440;BME280;12618;54.386;18.394;2023-02-13T11:23:51;101147.55;;;8.14;100.00
24440;BME280;12618;54.386;18.394;2023-02-13T11:26:34;101150.73;;;8.12;100.00
24440;BME280;12618;54.386;18.394;2023-02-13T11:29:36;101145.38;;;8.06;100.00
24440;BME280;12618;54.386;18.394;2023-02-13T11:32:19;101146.05;;;7.94;100.00
24440;BME280;12618;54.386;18.394;2023-02-13T11:34:52;101148.30;;;7.72;100.00
24440;BME280;12618;54.386;18.394;2023-02-13T11:37:27;101141.57;;;7.51;100.00
24440;BME280;12618;54.386;18.394;2023-02-13T11:40:27;101139.41;;;7.42;100.00
24440;BME280;12618;54.386;18.394;2023-02-13T11:42:59;101140.41;;;7.31;100.00
24440;BME280;12618;54.386;18.394;2023-02-13T11:45:31;101132.42;;;7.27;100.00
24440;BME280;12618;54.386;18.394;2023-02-13T11:48:08;101118.80;;;7.21;100.00
24440;BME280;12618;54.386;18.394;2023-02-13T11:50:40;101127.33;;;7.12;100.00
24440;BME280;12618;54.386;18.394;2023-02-13T11:53:22;101134.94;;;7.05;100.00
24440;BME280;12618;54.386;18.394;2023-02-13T11:58:36;101107.86;;;7.00;100.00
24440;BME280;12618;54.386;18.394;2023-02-13T12:04:14;101117.55;;;7.09;100.00
24440;BME280;12618;54.386;18.394;2023-02-13T12:07:03;101111.38;;;7.15;100.00
24440;BME280;12618;54.386;18.394;2023-02-13T12:09:44;101105.45;;;7.26;100.00
24440;BME280;12618;54.386;18.394;2023-02-13T12:12:36;101104.29;;;7.36;100.00
24440;BME280;12618;54.386;18.394;2023-02-13T12:15:29;101097.02;;;7.43;100.00
24440;BME280;12618;54.386;18.394;2023-02-13T12:18:29;101103.30;;;7.45;100.00
24440;BME280;12618;54.386;18.394;2023-02-13T12:25:18;101105.04;;;7.45;100.00
24440;BME280;12618;54.386;18.394;2023-02-13T12:32:51;101097.20;;;7.92;99.23
24440;BME280;12618;54.386;18.394;2023-02-13T12:46:48;101135.42;;;9.35;94.69
24440;BME280;12618;54.386;18.394;2023-02-13T12:49:42;101111.19;;;9.52;96.56
24440;BME280;12618;54.386;18.394;2023-02-13T12:53:42;101101.27;;;9.72;95.28
24440;BME280;12618;54.386;18.394;2023-02-13T13:01:42;101119.17;;;9.48;90.34
24440;BME280;12618;54.386;18.394;2023-02-13T13:15:04;101138.08;;;9.51;87.76
24440;BME280;12618;54.386;18.394;2023-02-13T13:24:36;101121.42;;;9.24;90.26
24440;BME280;12618;54.386;18.394;2023-02-13T13:27:29;101122.13;;;9.15;88.06
24440;BME280;12618;54.386;18.394;2023-02-13T13:30:11;101120.66;;;8.99;90.68
24440;BME280;12618;54.386;18.394;2023-02-13T13:32:44;101118.45;;;8.67;89.01
24440;BME280;12618;54.386;18.394;2023-02-13T13:35:18;101115.04;;;8.52;89.68
24440;BME280;12618;54.386;18.394;2023-02-13T13:38:01;101111.71;;;8.51;93.16
24440;BME280;12618;54.386;18.394;2023-02-13T13:40:56;101122.70;;;8.33;90.14
24440;BME280;12618;54.386;18.394;2023-02-13T13:49:57;101102.39;;;7.73;90.58
24440;BME280;12618;54.386;18.394;2023-02-13T13:52:25;101098.91;;;7.58;91.86
24440;BME280;12618;54.386;18.394;2023-02-13T13:54:58;101087.11;;;7.50;93.85
24440;BME280;12618;54.386;18.394;2023-02-13T14:05:30;101119.77;;;7.44;95.93
24440;BME280;12618;54.386;18.394;2023-02-13T14:17:00;101114.13;;;7.32;96.68
24440;BME280;12618;54.386;18.394;2023-02-13T14:19:35;101116.47;;;7.28;97.22
24440;BME280;12618;54.386;18.394;2023-02-13T14:24:50;101119.05;;;7.17;96.67
24440;BME280;12618;54.386;18.394;2023-02-13T14:27:29;101119.12;;;7.09;96.53
24440;BME280;12618;54.386;18.394;2023-02-13T14:30:04;101118.52;;;7.03;96.25
24440;BME280;12618;54.386;18.394;2023-02-13T14:32:38;101120.34;;;6.95;95.90
24440;BME280;12618;54.386;18.394;2023-02-13T14:35:37;101119.86;;;6.90;96.32
24440;BME280;12618;54.386;18.394;2023-02-13T14:38:21;101117.98;;;6.85;96.52
24440;BME280;12618;54.386;18.394;2023-02-13T14:40:55;101112.61;;;6.81;97.24
24440;BME280;12618;54.386;18.394;2023-02-13T14:46:15;101115.52;;;6.70;97.07
24440;BME280;12618;54.386;18.394;2023-02-13T14:49:13;101119.77;;;6.65;97.41
24440;BME280;12618;54.386;18.394;2023-02-13T14:51:50;101124.73;;;6.57;97.26
24440;BME280;12618;54.386;18.394;2023-02-13T14:54:38;101119.38;;;6.51;97.53
24440;BME280;12618;54.386;18.394;2023-02-13T14:57:28;101116.77;;;6.48;98.62
24440;BME280;12618;54.386;18.394;2023-02-13T15:00:22;101119.41;;;6.46;99.01
24440;BME280;12618;54.386;18.394;2023-02-13T15:03:02;101119.77;;;6.44;99.20
24440;BME280;12618;54.386;18.394;2023-02-13T15:05:35;101124.36;;;6.40;99.46
24440;BME280;12618;54.386;18.394;2023-02-13T15:08:12;101118.29;;;6.35;99.46
24440;BME280;12618;54.386;18.394;2023-02-13T15:10:53;101117.42;;;6.31;99.73
24440;BME280;12618;54.386;18.394;2023-02-13T15:13:32;101112.24;;;6.26;99.95
24440;BME280;12618;54.386;18.394;2023-02-13T15:16:09;101109.81;;;6.22;100.00
24440;BME280;12618;54.386;18.394;2023-02-13T15:18:50;101117.39;;;6.16;100.00
24440;BME280;12618;54.386;18.394;2023-02-13T15:21:23;101120.56;;;6.10;100.00
24440;BME280;12618;54.386;18.394;2023-02-13T15:23:56;101126.73;;;6.06;100.00
24440;BME280;12618;54.386;18.394;2023-02-13T15:26:28;101128.13;;;6.04;100.00
24440;BME280;12618;54.386;18.394;2023-02-13T15:29:14;101130.08;;;6.00;100.00
24440;BME280;12618;54.386;18.394;2023-02-13T15:31:58;101133.43;;;5.95;100.00
24440;BME280;12618;54.386;18.394;2023-02-13T15:34:31;101132.93;;;5.91;100.00
24440;BME280;12618;54.386;18.394;2023-02-13T15:37:19;101137.29;;;5.87;100.00
24440;BME280;12618;54.386;18.394;2023-02-13T15:39:50;101136.10;;;5.81;100.00
24440;BME280;12618;54.386;18.394;2023-02-13T15:42:22;101136.29;;;5.77;100.00
24440;BME280;12618;54.386;18.394;2023-02-13T15:44:56;101133.19;;;5.71;100.00
24440;BME280;12618;54.386;18.394;2023-02-13T15:47:30;101134.95;;;5.65;100.00
24440;BME280;12618;54.386;18.394;2023-02-13T15:50:03;101136.39;;;5.59;100.00
24440;BME280;12618;54.386;18.394;2023-02-13T15:52:45;101136.95;;;5.51;100.00
24440;BME280;12618;54.386;18.394;2023-02-13T15:55:28;101142.02;;;5.46;100.00